地図

経路データ

SID SEASON NUMBER BASIN SUBBASIN NAME ISO_TIME NATURE LAT LON WMO_WIND WMO_PRES WMO_AGENCY TRACK_TYPE DIST2LAND LANDFALL IFLAG USA_AGENCY USA_ATCF_ID USA_LAT USA_LON USA_RECORD USA_STATUS USA_WIND USA_PRES USA_SSHS USA_R34_NE USA_R34_SE USA_R34_SW USA_R34_NW USA_R50_NE USA_R50_SE USA_R50_SW USA_R50_NW USA_R64_NE USA_R64_SE USA_R64_SW USA_R64_NW USA_POCI USA_ROCI USA_RMW USA_EYE TOKYO_LAT TOKYO_LON TOKYO_GRADE TOKYO_WIND TOKYO_PRES TOKYO_R50_DIR TOKYO_R50_LONG TOKYO_R50_SHORT TOKYO_R30_DIR TOKYO_R30_LONG TOKYO_R30_SHORT TOKYO_LAND CMA_LAT CMA_LON CMA_CAT CMA_WIND CMA_PRES HKO_LAT HKO_LON HKO_CAT HKO_WIND HKO_PRES NEWDELHI_LAT NEWDELHI_LON NEWDELHI_GRADE NEWDELHI_WIND NEWDELHI_PRES NEWDELHI_CI NEWDELHI_DP NEWDELHI_POCI REUNION_LAT REUNION_LON REUNION_TYPE REUNION_WIND REUNION_PRES REUNION_TNUM REUNION_CI REUNION_RMW REUNION_R34_NE REUNION_R34_SE REUNION_R34_SW REUNION_R34_NW REUNION_R50_NE REUNION_R50_SE REUNION_R50_SW REUNION_R50_NW REUNION_R64_NE REUNION_R64_SE REUNION_R64_SW REUNION_R64_NW BOM_LAT BOM_LON BOM_TYPE BOM_WIND BOM_PRES BOM_TNUM BOM_CI BOM_RMW BOM_R34_NE BOM_R34_SE BOM_R34_SW BOM_R34_NW BOM_R50_NE BOM_R50_SE BOM_R50_SW BOM_R50_NW BOM_R64_NE BOM_R64_SE BOM_R64_SW BOM_R64_NW BOM_ROCI BOM_POCI BOM_EYE BOM_POS_METHOD BOM_PRES_METHOD NADI_LAT NADI_LON NADI_CAT NADI_WIND NADI_PRES WELLINGTON_LAT WELLINGTON_LON WELLINGTON_WIND WELLINGTON_PRES DS824_LAT DS824_LON DS824_STAGE DS824_WIND DS824_PRES TD9636_LAT TD9636_LON TD9636_STAGE TD9636_WIND TD9636_PRES TD9635_LAT TD9635_LON TD9635_WIND TD9635_PRES TD9635_ROCI NEUMANN_LAT NEUMANN_LON NEUMANN_CLASS NEUMANN_WIND NEUMANN_PRES MLC_LAT MLC_LON MLC_CLASS MLC_WIND MLC_PRES USA_GUST BOM_GUST BOM_GUST_PER REUNION_GUST REUNION_GUST_PER USA_SEAHGT USA_SEARAD_NE USA_SEARAD_SE USA_SEARAD_SW USA_SEARAD_NW STORM_SPEED STORM_DIR
1967294N13245 1967 128 EP MM RAMONA 1967-10-21 00:00:00 TS 12.6000 -115.500 25 hurdat_epa main 1290 1285 O________OO___ hurdat_epa EP161967 12.6000 -115.500 TD 25 -1 12.6000 -115.500 TC 25 12.6000 -115.500 1 11 293
1967294N13245 1967 128 EP MM RAMONA 1967-10-21 03:00:00 TS 12.8058 -115.995 main 1295 1291 P________PP___ EP161967 12.8052 -115.990 TD 25 -1 12.8052 -115.990 TC 25 12.8084 -116.013 1 11 292
1967294N13245 1967 128 EP MM RAMONA 1967-10-21 06:00:00 TS 13.0006 -116.506 25 hurdat_epa main 1303 1303 O________OP___ hurdat_epa EP161967 13.0000 -116.500 TD 25 -1 13.0000 -116.500 TC 25 13.0030 -116.532 1 11 290
1967294N13245 1967 128 EP MM RAMONA 1967-10-21 09:00:00 TS 13.1722 -117.046 main 1312 1312 P________PP___ EP161967 13.1724 -117.043 TD 25 -1 13.1724 -117.043 TC 25 13.1712 -117.059 1 11 286
1967294N13245 1967 128 EP MM RAMONA 1967-10-21 12:00:00 TS 13.3000 -117.600 25 hurdat_epa main 1340 1340 O________OO___ hurdat_epa EP161967 13.3000 -117.600 TD 25 -1 13.3000 -117.600 TC 25 13.3000 -117.600 2 11 281
1967294N13245 1967 128 EP MM RAMONA 1967-10-21 15:00:00 TS 13.3740 -118.157 main 1370 1370 P________PP___ EP161967 13.3724 -118.158 TD 25 -1 13.3724 -118.158 TC 25 13.3804 -118.154 2 11 276
1967294N13245 1967 128 EP MM RAMONA 1967-10-21 18:00:00 TS 13.4035 -118.701 25 hurdat_epa main 1404 1404 O________OP___ hurdat_epa EP161967 13.4000 -118.700 TD 25 -1 13.4000 -118.700 TC 25 13.4176 -118.703 2 10 272
1967294N13245 1967 128 EP MM RAMONA 1967-10-21 21:00:00 TS 13.4162 -119.229 main 1439 1439 P________PP___ EP161967 13.4150 -119.230 TD 35 0 13.4150 -119.230 TC 35 13.4211 -119.225 2 10 270
1967294N13245 1967 128 EP MM RAMONA 1967-10-22 00:00:00 TS 13.4000 -119.700 45 hurdat_epa main 1475 1475 O________OO___ hurdat_epa EP161967 13.4000 -119.700 TS 45 0 13.4000 -119.700 TC 45 13.4000 -119.700 2 8 266
1967294N13245 1967 128 EP MM RAMONA 1967-10-22 03:00:00 TS 13.3601 -120.078 main 1505 1505 P________PP___ EP161967 13.3573 -120.073 TS 45 0 13.3573 -120.073 TC 45 13.3710 -120.100 2 7 262
1967294N13245 1967 128 EP MM RAMONA 1967-10-22 06:00:00 TS 13.3044 -120.411 45 hurdat_epa main 1535 1535 O________OP___ hurdat_epa EP161967 13.3000 -120.400 TS 45 0 13.3000 -120.400 TC 45 13.3218 -120.453 2 7 261
1967294N13245 1967 128 EP MM RAMONA 1967-10-22 09:00:00 TS 13.2523 -120.756 main 1566 1566 P________PP___ EP161967 13.2500 -120.750 TS 45 0 13.2500 -120.750 TC 45 13.2617 -120.778 2 7 261
1967294N13245 1967 128 EP MM RAMONA 1967-10-22 12:00:00 TS 13.2000 -121.100 45 hurdat_epa main 1595 1595 O________OO___ hurdat_epa EP161967 13.2000 -121.100 TS 45 0 13.2000 -121.100 TC 45 13.2000 -121.100 2 7 261
1967294N13245 1967 128 EP MM RAMONA 1967-10-22 15:00:00 TS 13.1507 -121.449 main 1614 1614 P________PP___ EP161967 13.1500 -121.450 TS 45 0 13.1500 -121.450 TC 45 13.1539 -121.446 2 7 262
1967294N13245 1967 128 EP MM RAMONA 1967-10-22 18:00:00 TS 13.1015 -121.798 45 hurdat_epa main 1649 1649 O________OP___ hurdat_epa EP161967 13.1000 -121.800 TS 45 0 13.1000 -121.800 TC 45 13.1072 -121.792 2 7 262
1967294N13245 1967 128 EP MM RAMONA 1967-10-22 21:00:00 TS 13.0513 -122.143 main 1668 1668 P________PP___ EP161967 13.0499 -122.142 TS 45 0 13.0499 -122.142 TC 45 13.0570 -122.143 2 7 262
1967294N13245 1967 128 EP MM RAMONA 1967-10-23 00:00:00 TS 13.0000 -122.500 45 hurdat_epa main 1704 1704 O________OO___ hurdat_epa EP161967 13.0000 -122.500 TS 45 0 13.0000 -122.500 TC 45 13.0000 -122.500 2 7 262
1967294N13245 1967 128 EP MM RAMONA 1967-10-23 03:00:00 TS 12.9548 -122.891 main 1731 1731 P________PP___ EP161967 12.9575 -122.900 TS 45 0 12.9575 -122.900 TC 45 12.9441 -122.855 2 8 262
1967294N13245 1967 128 EP MM RAMONA 1967-10-23 06:00:00 TS 12.8959 -123.284 45 hurdat_epa main 1767 1767 O________OP___ hurdat_epa EP161967 12.9000 -123.300 TS 45 0 12.9000 -123.300 TC 45 12.8796 -123.220 2 7 259
1967294N13245 1967 128 EP MM RAMONA 1967-10-23 09:00:00 TS 12.8120 -123.634 main 1797 1797 P________PP___ EP161967 12.8149 -123.642 TS 45 0 12.8149 -123.642 TC 45 12.8003 -123.599 2 7 254
1967294N13245 1967 128 EP MM RAMONA 1967-10-23 12:00:00 TS 12.7000 -124.000 45 hurdat_epa main 1834 1834 O________OO___ hurdat_epa EP161967 12.7000 -124.000 TS 45 0 12.7000 -124.000 TC 45 12.7000 -124.000 2 8 252
1967294N13245 1967 128 EP MM RAMONA 1967-10-23 15:00:00 TS 12.5595 -124.436 main 1871 1871 P________PP___ EP161967 12.5575 -124.435 TS 45 0 12.5575 -124.435 TC 45 12.5676 -124.441 2 9 251
1967294N13245 1967 128 EP MM RAMONA 1967-10-23 18:00:00 TS 12.4030 -124.900 45 hurdat_epa main 1924 1924 O________OP___ hurdat_epa EP161967 12.4000 -124.900 TS 45 0 12.4000 -124.900 TC 45 12.4151 -124.900 2 10 251
1967294N13245 1967 128 EP MM RAMONA 1967-10-23 21:00:00 TS 12.2450 -125.364 main 1977 1977 P________PP___ EP161967 12.2425 -125.365 TS 45 0 12.2425 -125.365 TC 45 12.2551 -125.360 2 9 251
1967294N13245 1967 128 EP MM RAMONA 1967-10-24 00:00:00 TS 12.1000 -125.800 45 hurdat_epa main 2016 2016 O________OO___ hurdat_epa EP161967 12.1000 -125.800 TS 45 0 12.1000 -125.800 TC 45 12.1000 -125.800 2 8 252
1967294N13245 1967 128 EP MM RAMONA 1967-10-24 03:00:00 TS 11.9942 -126.164 main 2054 2054 P________PP___ EP161967 11.9999 -126.157 TS 45 0 11.9999 -126.157 TC 45 11.9715 -126.188 2 7 253
1967294N13245 1967 128 EP MM RAMONA 1967-10-24 06:00:00 TS 11.8899 -126.511 45 hurdat_epa main 2084 2084 O________OP___ hurdat_epa EP161967 11.9000 -126.500 TS 45 0 11.9000 -126.500 TC 45 11.8495 -126.557 2 8 252
1967294N13245 1967 128 EP MM RAMONA 1967-10-24 09:00:00 TS 11.7575 -126.898 main 2123 2123 P________PP___ EP161967 11.7650 -126.892 TS 45 0 11.7650 -126.892 TC 45 11.7278 -126.923 2 8 249
1967294N13245 1967 128 EP MM RAMONA 1967-10-24 12:00:00 TS 11.6000 -127.300 45 hurdat_epa main 2170 2170 O________OO___ hurdat_epa EP161967 11.6000 -127.300 TS 45 0 11.6000 -127.300 TC 45 11.6000 -127.300 2 9 245
1967294N13245 1967 128 EP MM RAMONA 1967-10-24 15:00:00 TS 11.3851 -127.700 main 2216 2216 P________PP___ EP161967 11.3924 -127.693 TS 45 0 11.3924 -127.693 TC 45 11.3557 -127.728 2 9 242
1967294N13245 1967 128 EP MM RAMONA 1967-10-24 18:00:00 TS 11.1840 -128.113 45 hurdat_epa main 2263 2263 O________OP___ hurdat_epa EP161967 11.2000 -128.100 TS 45 0 11.2000 -128.100 TC 45 11.1201 -128.166 2 9 246
1967294N13245 1967 128 EP MM RAMONA 1967-10-24 21:00:00 TS 11.0149 -128.559 main 2318 2318 P________PP___ EP161967 11.0250 -128.550 TS 35 0 11.0250 -128.550 TC 35 10.9745 -128.597 2 9 258
1967294N13245 1967 128 EP MM RAMONA 1967-10-25 00:00:00 TS 11.0000 -129.000 25 hurdat_epa main 2349 2349 O________OO___ hurdat_epa EP161967 11.0000 -129.000 TD 25 -1 11.0000 -129.000 TC 25 11.0000 -129.000 1 9 283
1967294N13245 1967 128 EP MM RAMONA 1967-10-25 03:00:00 TS 11.2107 -129.416 main 2366 2361 P________PP___ EP161967 11.1875 -129.430 TD 25 -1 11.1875 -129.430 TC 25 11.3032 -129.361 1 10 310
1967294N13245 1967 128 EP MM RAMONA 1967-10-25 06:00:00 TS 11.6355 -129.779 25 hurdat_epa main 2369 2339 O________OP___ hurdat_epa EP161967 11.6000 -129.800 TD 25 -1 11.6000 -129.800 TC 25 11.7773 -129.694 1 12 328
1967294N13245 1967 128 EP MM RAMONA 1967-10-25 09:00:00 TS 12.2495 -130.083 main 2339 2294 P________PP___ EP161967 12.2275 -130.102 TD 25 -1 12.2275 -130.102 TC 25 12.3377 -130.005 1 14 338
1967294N13245 1967 128 EP MM RAMONA 1967-10-25 12:00:00 TS 12.9000 -130.300 25 hurdat_epa main 2294 2259 O________OO___ hurdat_epa EP161967 12.9000 -130.300 TD 25 -1 12.9000 -130.300 TC 25 12.9000 -130.300 1 12 343
1967294N13245 1967 128 EP MM RAMONA 1967-10-25 15:00:00 TS 13.3884 -130.430 main 2259 2234 P________PP___ EP161967 13.3874 -130.388 TD 25 -1 13.3874 -130.388 TC 25 13.3920 -130.597 1 9 348
1967294N13245 1967 128 EP MM RAMONA 1967-10-25 18:00:00 TS 13.8125 -130.496 25 hurdat_epa main 2234 2202 O________OP___ hurdat_epa EP161967 13.8000 -130.400 TD 25 -1 13.8000 -130.400 TC 25 13.8623 -130.880 1 9 355
1967294N13245 1967 128 EP MM RAMONA 1967-10-25 21:00:00 TS 14.2451 -130.496 main 2202 2177 P________PP___ EP161967 14.2373 -130.333 TD 25 -1 14.2373 -130.333 TC 25 14.2764 -131.147 1 8 353
1967294N13245 1967 128 EP MM RAMONA 1967-10-26 00:00:00 TS 14.6000 -130.600 25 hurdat_epa main 2177 2169 O________OO___ hurdat_epa EP161967 14.6000 -130.400 TD 25 -1 14.6000 -130.400 TC 25 14.6000 -131.400 1 8 321
1967294N13245 1967 128 EP MM RAMONA 1967-10-26 03:00:00 TS 14.8509 -130.995 main 2185 2185 P________PP___ EP161967 14.8602 -130.832 TD 25 -1 14.8602 -130.832 TC 25 14.8136 -131.644 1 9 294
1967294N13245 1967 128 EP MM RAMONA 1967-10-26 06:00:00 TS 14.9870 -131.495 25 hurdat_epa main 2216 2216 O________OP___ hurdat_epa EP161967 15.0000 -131.400 TD 25 -1 15.0000 -131.400 TC 25 14.9348 -131.873 1 9 281
1967294N13245 1967 128 EP MM RAMONA 1967-10-26 09:00:00 TS 15.0278 -131.934 main 2248 2248 P________PP___ EP161967 15.0375 -131.895 TD 25 -1 15.0375 -131.895 TC 25 14.9886 -132.091 1 8 271
1967294N13245 1967 128 EP MM RAMONA 1967-10-26 12:00:00 TS 15.0000 -132.300 25 hurdat_epa main 2280 2280 O________OO___ hurdat_epa EP161967 15.0000 -132.300 TD 25 -1 15.0000 -132.300 TC 25 15.0000 -132.300 1 6 263
1967294N13245 1967 128 EP MM RAMONA 1967-10-26 15:00:00 TS 14.9596 -132.528 main 2296 2296 P________PP___ EP161967 14.9498 -132.538 TD 25 -1 14.9498 -132.538 TC 25 14.9986 -132.491 1 4 257
1967294N13245 1967 128 EP MM RAMONA 1967-10-26 18:00:00 TS 14.9129 -132.696 25 hurdat_epa main 2320 2320 O________OP___ hurdat_epa EP161967 14.9000 -132.700 TD 25 -1 14.9000 -132.700 TC 25 14.9647 -132.678 1 3 259
1967294N13245 1967 128 EP MM RAMONA 1967-10-26 21:00:00 TS 14.8927 -132.883 main 2336 2336 P________PP___ EP161967 14.8849 -132.885 TD 25 -1 14.8849 -132.885 TC 25 14.9235 -132.876 1 4 268
1967294N13245 1967 128 EP MM RAMONA 1967-10-27 00:00:00 TS 14.9000 -133.100 25 hurdat_epa main 2353 2329 O________OO___ hurdat_epa EP161967 14.9000 -133.100 TD 25 -1 14.9000 -133.100 TC 25 14.9000 -133.100 1 5 276
1967294N13245 1967 128 EP MM RAMONA 1967-10-27 03:00:00 TS 14.9405 -133.380 main 2329 2295 P________PP___ EP161967 14.9425 -133.385 TD 25 -1 14.9425 -133.385 TC 25 14.9324 -133.359 1 6 280
1967294N13245 1967 128 EP MM RAMONA 1967-10-27 06:00:00 TS 14.9970 -133.689 25 hurdat_epa main 2295 2264 O________OP___ hurdat_epa EP161967 15.0000 -133.700 TD 25 -1 15.0000 -133.700 TC 25 14.9849 -133.647 1 6 280
1967294N13245 1967 128 EP MM RAMONA 1967-10-27 09:00:00 TS 15.0489 -133.986 main 2264 2230 P________PP___ EP161967 15.0499 -133.993 TD 25 -1 15.0499 -133.993 TC 25 15.0449 -133.962 1 6 280
1967294N13245 1967 128 EP MM RAMONA 1967-10-27 12:00:00 TS 15.1000 -134.300 25 hurdat_epa main 2230 2199 O________OO___ hurdat_epa EP161967 15.1000 -134.300 TD 25 -1 15.1000 -134.300 TC 25 15.1000 -134.300 1 6 279
1967294N13245 1967 128 EP MM RAMONA 1967-10-27 15:00:00 TS 15.1508 -134.639 main 2196 2154 P________PP___ EP161967 15.1574 -134.635 TD 25 -1 15.1574 -134.635 TC 25 15.1240 -134.654 1 7 277
1967294N13245 1967 128 EP MM RAMONA 1967-10-27 18:00:00 TS 15.1885 -135.006 25 hurdat_epa main 2154 2113 O________OP___ hurdat_epa EP161967 15.2000 -135.000 TD 25 -1 15.2000 -135.000 TC 25 15.1425 -135.028 1 7 273
1967294N13245 1967 128 EP MM RAMONA 1967-10-27 21:00:00 TS 15.1929 -135.403 main 2113 2072 P________PP___ EP161967 15.2000 -135.400 TD 25 -1 15.2000 -135.400 TC 25 15.1646 -135.413 1 8 271
1967294N13245 1967 128 EP MM RAMONA 1967-10-28 00:00:00 TS 15.2000 -135.800 25 hurdat_epa main 2072 2041 O________OO___ hurdat_epa EP161967 15.2000 -135.800 TD 25 -1 15.2000 -135.800 TC 25 15.2000 -135.800 1 7 274
1967294N13245 1967 128 EP MM RAMONA 1967-10-28 03:00:00 TS 15.2415 -136.146 main 2041 1996 P________PP___ EP161967 15.2349 -136.150 TD 25 -1 15.2349 -136.150 TC 25 15.2679 -136.130 1 7 279
1967294N13245 1967 128 EP MM RAMONA 1967-10-28 06:00:00 TS 15.3097 -136.493 25 hurdat_epa main 1996 1962 O________OP___ hurdat_epa EP161967 15.3000 -136.500 TD 25 -1 15.3000 -136.500 TC 25 15.3487 -136.467 1 7 284
1967294N13245 1967 128 EP MM RAMONA 1967-10-28 09:00:00 TS 15.4118 -136.853 main 1952 1908 P________PP___ EP161967 15.4072 -136.855 TD 25 -1 15.4072 -136.855 TC 25 15.4302 -136.846 1 8 284
1967294N13245 1967 128 EP MM RAMONA 1967-10-28 12:00:00 TS 15.5000 -137.300 25 hurdat_epa main 1908 1846 O________OO___ hurdat_epa EP161967 15.5000 -137.300 TD 25 -1 15.5000 -137.300 TC 25 15.5000 -137.300 1 10 276
1967294N13245 1967 128 EP MM RAMONA 1967-10-28 15:00:00 TS 15.5126 -137.916 main 1846 1774 P________PP___ EP161967 15.5076 -137.913 TD 25 -1 15.5076 -137.913 TC 25 15.5326 -137.928 1 13 270
1967294N13245 1967 128 EP MM RAMONA 1967-10-28 18:00:00 TS 15.5104 -138.605 25 hurdat_epa main 1774 1703 O________OP___ hurdat_epa EP161967 15.5000 -138.600 TD 25 -1 15.5000 -138.600 TC 25 15.5520 -138.623 1 13 271
1967294N13245 1967 128 EP MM RAMONA 1967-10-28 21:00:00 TS 15.5422 -139.303 main 1703 1638 P________PP___ EP161967 15.5352 -139.302 TD 25 -1 15.5352 -139.302 TC 25 15.5701 -139.306 1 13 274
1967294N13245 1967 128 EP MM RAMONA 1967-10-29 00:00:00 TS 15.6000 -139.900 25 hurdat_epa main 1638 1604 O________OO___ hurdat_epa EP161967 15.6000 -139.900 TD 25 -1 15.6000 -139.900 TC 25 15.6000 -139.900 1 9 279
1967294N13245 1967 128 EP CP RAMONA 1967-10-29 03:00:00 TS 15.6932 -140.260 main 1594 1570 P________PP___ EP161967 15.6997 -140.253 TD 25 -1 15.6997 -140.253 TC 25 15.6675 -140.288 1 6 288
1967294N13245 1967 128 EP CP RAMONA 1967-10-29 06:00:00 TS 15.7902 -140.516 25 hurdat_epa main 1570 1536 O________OP___ hurdat_epa EP161967 15.8000 -140.500 TD 25 -1 15.8000 -140.500 TC 25 15.7484 -140.582 1 5 288
1967294N13245 1967 128 EP CP RAMONA 1967-10-29 09:00:00 TS 15.8584 -140.793 main 1536 1505 P________PP___ EP161967 15.8649 -140.785 TD 25 -1 15.8649 -140.785 TC 25 15.8302 -140.835 1 6 281
1967294N13245 1967 128 EP CP RAMONA 1967-10-29 12:00:00 TS 15.9000 -141.100 25 hurdat_epa main 1505 1465 O________OO___ hurdat_epa EP161967 15.9000 -141.100 TD 25 -1 15.9000 -141.100 TC 25 15.9000 -141.100 2 7 274
1967294N13245 1967 128 EP CP RAMONA 1967-10-29 15:00:00 TS 15.9060 -141.492 main 1465 1424 P________PP___ EP161967 15.9000 -141.493 TD 35 0 15.9000 -141.493 TC 35 15.9356 -141.486 2 8 271
1967294N13245 1967 128 EP CP RAMONA 1967-10-29 18:00:00 TS 15.9097 -141.898 45 hurdat_epa main 1424 1383 O________OP___ hurdat_epa EP161967 15.9000 -141.900 TS 45 0 15.9000 -141.900 TC 45 15.9580 -141.888 2 8 273
1967294N13245 1967 128 EP CP RAMONA 1967-10-29 21:00:00 TS 15.9481 -142.278 main 1383 1349 P________PP___ EP161967 15.9425 -142.280 TS 45 0 15.9425 -142.280 TC 45 15.9763 -142.270 2 7 278
1967294N13245 1967 128 EP CP RAMONA 1967-10-30 00:00:00 TS 16.0000 -142.600 45 hurdat_epa main 1349 1329 O________OO___ hurdat_epa EP161967 16.0000 -142.600 TS 45 0 16.0000 -142.600 TC 45 16.0000 -142.600 2 5 281
1967294N13245 1967 128 EP CP RAMONA 1967-10-30 03:00:00 TS 16.0486 -142.827 main 1329 1305 P________PP___ EP161967 16.0499 -142.830 TS 45 0 16.0499 -142.830 TC 45 16.0423 -142.812 2 4 285
1967294N13245 1967 128 EP CP RAMONA 1967-10-30 06:00:00 TS 16.0986 -142.995 45 hurdat_epa main 1305 1295 O________OP___ hurdat_epa EP161967 16.1000 -143.000 TS 45 0 16.1000 -143.000 TC 45 16.0918 -142.973 2 3 289
1967294N13245 1967 128 EP CP RAMONA 1967-10-30 09:00:00 TS 16.1492 -143.133 main 1295 1271 P________PP___ EP161967 16.1499 -143.135 TS 45 0 16.1499 -143.135 TC 45 16.1455 -143.122 2 3 289
1967294N13245 1967 128 EP CP RAMONA 1967-10-30 12:00:00 TS 16.2000 -143.300 45 hurdat_epa main 1271 1241 O________OO___ hurdat_epa EP161967 16.2000 -143.300 TS 45 0 16.2000 -143.300 TC 45 16.2000 -143.300 2 4 283
1967294N13245 1967 128 EP CP RAMONA 1967-10-30 15:00:00 TS 16.2508 -143.579 main 1237 1207 P________PP___ EP161967 16.2500 -143.577 TS 45 0 16.2500 -143.577 TC 45 16.2543 -143.584 2 6 280
1967294N13245 1967 128 EP CP RAMONA 1967-10-30 18:00:00 TS 16.3013 -143.900 45 hurdat_epa main 1207 1173 O________OP___ hurdat_epa EP161967 16.3000 -143.900 TS 45 0 16.3000 -143.900 TC 45 16.3079 -143.900 2 6 280
1967294N13245 1967 128 EP CP RAMONA 1967-10-30 21:00:00 TS 16.3575 -144.221 main 1173 1143 P________PP___ EP161967 16.3575 -144.222 TS 45 0 16.3575 -144.222 TC 45 16.3574 -144.216 2 6 280
1967294N13245 1967 128 EP CP RAMONA 1967-10-31 00:00:00 TS 16.4000 -144.500 45 hurdat_epa main 1143 1123 O________OO___ hurdat_epa EP161967 16.4000 -144.500 TS 45 0 16.4000 -144.500 TC 45 16.4000 -144.500 2 4 276
1967294N13245 1967 128 EP CP RAMONA 1967-10-31 03:00:00 TS 16.4052 -144.672 main 1123 1113 P________PP___ EP161967 16.3999 -144.665 TS 45 0 16.3999 -144.665 TC 45 16.4319 -144.707 2 3 272
1967294N13245 1967 128 EP CP RAMONA 1967-10-31 06:00:00 TS 16.4095 -144.813 45 hurdat_epa main 1113 1093 O________OP___ hurdat_epa EP161967 16.4000 -144.800 TS 45 0 16.4000 -144.800 TC 45 16.4572 -144.880 2 3 278
1967294N13245 1967 128 EP CP RAMONA 1967-10-31 09:00:00 TS 16.4486 -145.000 main 1093 1069 P________PP___ EP161967 16.4425 -144.992 TS 45 0 16.4425 -144.992 TC 45 16.4788 -145.038 2 4 284
1967294N13245 1967 128 EP CP RAMONA 1967-10-31 12:00:00 TS 16.5000 -145.200 45 hurdat_epa main 1069 1049 O________OO___ hurdat_epa EP161967 16.5000 -145.200 TS 45 0 16.5000 -145.200 TC 45 16.5000 -145.200 2 4 285
1967294N13245 1967 128 EP CP RAMONA 1967-10-31 15:00:00 TS 16.5514 -145.399 main 1045 1025 P________PP___ EP161967 16.5575 -145.400 TS 45 0 16.5575 -145.400 TC 45 16.5209 -145.397 2 4 283
1967294N13245 1967 128 EP CP RAMONA 1967-10-31 18:00:00 TS 16.5904 -145.600 45 hurdat_epa main 1025 1005 O________OP___ hurdat_epa EP161967 16.6000 -145.600 TS 45 0 16.6000 -145.600 TC 45 16.5425 -145.600 2 4 276
1967294N13245 1967 128 EP CP RAMONA 1967-10-31 21:00:00 TS 16.5946 -145.801 main 1005 985 P________PP___ EP161967 16.6000 -145.800 TS 45 0 16.6000 -145.800 TC 45 16.5678 -145.803 2 4 271
1967294N13245 1967 128 EP CP RAMONA 1967-11-01 00:00:00 TS 16.6000 -146.000 45 hurdat_epa main 985 965 O________OO___ hurdat_epa EP161967 16.6000 -146.000 TS 45 0 16.6000 -146.000 TC 45 16.6000 -146.000 2 4 277
1967294N13245 1967 128 EP CP RAMONA 1967-11-01 03:00:00 TS 16.6412 -146.203 main 965 941 P________PP___ EP161967 16.6425 -146.207 TS 45 0 16.6425 -146.207 TC 45 16.6346 -146.182 2 4 284
1967294N13245 1967 128 EP CP RAMONA 1967-11-01 06:00:00 TS 16.6962 -146.393 45 hurdat_epa main 941 931 O________OP___ hurdat_epa EP161967 16.7000 -146.400 TS 45 0 16.7000 -146.400 TC 45 16.6774 -146.358 2 3 287
1967294N13245 1967 128 EP CP RAMONA 1967-11-01 09:00:00 TS 16.7406 -146.547 main 931 907 P________PP___ EP161967 16.7425 -146.550 TS 45 0 16.7425 -146.550 TC 45 16.7315 -146.529 2 3 289
1967294N13245 1967 128 EP CP RAMONA 1967-11-01 12:00:00 TS 16.8000 -146.700 45 hurdat_epa main 907 883 O________OO___ hurdat_epa EP161967 16.8000 -146.700 TS 45 0 16.8000 -146.700 TC 45 16.8000 -146.700 2 4 294
1967294N13245 1967 128 EP CP RAMONA 1967-11-01 15:00:00 TS 16.8887 -146.899 main 883 859 P________PP___ EP161967 16.8925 -146.900 TS 45 0 16.8925 -146.900 TC 45 16.8694 -146.891 2 4 297
1967294N13245 1967 128 EP CP RAMONA 1967-11-01 18:00:00 TS 16.9925 -147.097 45 hurdat_epa main 859 836 O________OP___ hurdat_epa EP161967 17.0000 -147.100 TS 45 0 17.0000 -147.100 TC 45 16.9551 -147.080 2 4 299
1967294N13245 1967 128 EP CP RAMONA 1967-11-01 21:00:00 TS 17.0814 -147.263 main 836 822 P________PP___ EP161967 17.0850 -147.265 TS 45 0 17.0850 -147.265 TC 45 17.0632 -147.254 2 4 305
1967294N13245 1967 128 EP CP RAMONA 1967-11-02 00:00:00 TS 17.2000 -147.400 45 hurdat_epa main 822 805 O________OO___ hurdat_epa EP161967 17.2000 -147.400 TS 45 0 17.2000 -147.400 TC 45 17.2000 -147.400 2 4 321
1967294N13245 1967 128 EP CP RAMONA 1967-11-02 03:00:00 TS 17.3780 -147.516 main 805 788 P________PP___ EP161967 17.3850 -147.515 TS 45 0 17.3850 -147.515 TC 45 17.3428 -147.520 2 4 333
1967294N13245 1967 128 EP CP RAMONA 1967-11-02 06:00:00 TS 17.5862 -147.602 45 hurdat_epa main 788 771 O________OP___ hurdat_epa EP161967 17.6000 -147.600 TS 45 0 17.6000 -147.600 TC 45 17.5174 -147.610 2 4 340
1967294N13245 1967 128 EP CP RAMONA 1967-11-02 09:00:00 TS 17.7664 -147.666 main 771 766 P________PP___ EP161967 17.7775 -147.665 TS 45 0 17.7775 -147.665 TC 45 17.7334 -147.670 2 4 347
1967294N13245 1967 128 EP CP RAMONA 1967-11-02 12:00:00 TS 18.0000 -147.700 45 hurdat_epa main 766 758 O________OO___ hurdat_epa EP161967 18.0000 -147.700 TS 45 0 18.0000 -147.700 TC 45 18.0000 -147.700 2 6 357
1967294N13245 1967 128 EP CP RAMONA 1967-11-02 15:00:00 TS 18.3319 -147.706 main 758 751 P________PP___ EP161967 18.3200 -147.715 TS 45 0 18.3200 -147.715 TC 45 18.2639 -147.696 2 7 0
1967294N13245 1967 128 EP CP RAMONA 1967-11-02 18:00:00 TS 18.7309 -147.694 45 hurdat_epa main 751 746 O________OP___ hurdat_epa EP161967 18.7000 -147.700 TS 45 0 18.7000 -147.700 TC 45 18.5852 -147.665 2 8 0
1967294N13245 1967 128 EP CP RAMONA 1967-11-02 21:00:00 TS 19.1115 -147.688 main 746 743 P________PP___ EP161967 19.0400 -147.650 TS 45 0 19.0400 -147.650 TC 45 18.9889 -147.627 2 9 2
1967294N13245 1967 128 EP CP RAMONA 1967-11-03 00:00:00 TS 19.6000 -147.683 45 hurdat_epa main 743 743 O________OO___ hurdat_epa EP161967 19.5000 -147.600 TS 45 0 19.5000 -147.600 TC 45 19.5000 -147.600 2 12 0
1967294N13245 1967 128 EP CP RAMONA 1967-11-03 03:00:00 TS 20.2798 -147.679 main 747 747 P________PP___ EP161967 20.1975 -147.585 TS 45 0 20.1975 -147.585 TC 45 20.1340 -147.598 2 15 0
1967294N13245 1967 128 EP CP RAMONA 1967-11-03 06:00:00 TS 21.0612 -147.687 45 hurdat_epa main 761 761 O________OP___ hurdat_epa EP161967 21.0000 -147.600 TS 45 0 21.0000 -147.600 TC 45 20.8675 -147.619 2 16 359
1967294N13245 1967 128 EP CP RAMONA 1967-11-03 09:00:00 TS 21.8441 -147.712 main 782 782 P________PP___ EP161967 21.7675 -147.642 TS 45 0 21.7675 -147.642 TC 45 21.6673 -147.656 2 16 358
1967294N13245 1967 128 EP CP RAMONA 1967-11-03 12:00:00 TS 22.6167 -147.750 45 hurdat_epa main 813 O________OO___ hurdat_epa EP161967 22.5000 -147.700 TS 45 0 22.5000 -147.700 TC 45 22.5000 -147.700 2 16 358

IBTrACS Databaseについて

本データベースは、米国NOAAが公開する1842年以降の世界の熱帯低気圧のベストトラックデータアーカイブInternational Best Track Archive for Climate Stewardship (IBTrACS)を、ウェブで閲覧しやすい形式に変換したものです。

最終更新日:2021-10-21